Skip N Bou — 2FRG9 — position and weather

sailwx.info

Track history (hours):
 
Tides and Currents Weather Stations Pressure Air Temp Water Temp Dewpoint Dewpoint Depression Visibility Wind Speed Wind Dir Waves Ship Positions

Skip N Bou

Last reported at 2018-Feb-23 04:28 UTC. Time now 2018-Feb-23 04:34 UTC.
Position N 17°00' W 061°46'.

Length 24 m.

Type: Sailing vessel. MMSI: 235093585.

Date/timePositionNaut miles runAvg speedWind from/ knotsBaromVisibWave heightAir tempDewpointWater temp
2018-Feb-23 04:28N 17°00' W 061°46'0 0.0
2018-Feb-23 03:55N 17°00' W 061°46'0 0.0
2018-Feb-23 03:28N 17°00' W 061°46'0 0.0
2018-Feb-23 02:58N 17°00' W 061°46'0 0.0
2018-Feb-23 02:28N 17°00' W 061°46'0 0.0
2018-Feb-23 01:58N 17°00' W 061°46'0 0.0
2018-Feb-23 01:28N 17°00' W 061°46'0 0.0
2018-Feb-23 00:58N 17°00' W 061°46'0 0.0
2018-Feb-23 00:28N 17°00' W 061°46'0 0.0
2018-Feb-22 23:58N 17°00' W 061°46'0 0.0
2018-Feb-22 23:28N 17°00' W 061°46'0 0.0
2018-Feb-22 22:58N 17°00' W 061°46'0 0.0
2018-Feb-22 22:28N 17°00' W 061°46'0 0.0
2018-Feb-22 21:55N 17°00' W 061°46'0 0.0
2018-Feb-22 21:28N 17°00' W 061°46'0 0.0
2018-Feb-22 20:58N 17°00' W 061°46'0 0.0
2018-Feb-22 20:28N 17°00' W 061°46'0 0.0
2018-Feb-22 19:58N 17°00' W 061°46'0 0.0
2018-Feb-22 19:28N 17°00' W 061°46'0 0.0
2018-Feb-22 18:58N 17°00' W 061°46'0 0.0
2018-Feb-22 18:25N 17°00' W 061°46'0 0.2
2018-Feb-22 17:58N 17°01' W 061°46'0 1.1
2018-Feb-22 17:30N 17°00' W 061°46'1 2.7
2018-Feb-22 17:00N 17°01' W 061°47'0 0.1
2018-Feb-22 16:30N 17°01' W 061°47'0 0.0
2018-Feb-22 15:59N 17°01' W 061°47'0 0.0
2018-Feb-22 15:30N 17°01' W 061°47'0 0.0
2018-Feb-22 15:00N 17°01' W 061°47'0 0.0
2018-Feb-22 14:30N 17°01' W 061°47'0 0.0
2018-Feb-22 13:59N 17°01' W 061°47'0 0.0
2018-Feb-22 13:30N 17°01' W 061°47'0 0.0
2018-Feb-22 13:00N 17°01' W 061°47'0 0.0
2018-Feb-22 12:29N 17°01' W 061°47'0 0.0
2018-Feb-22 12:00N 17°01' W 061°47'0 0.0
2018-Feb-22 11:30N 17°01' W 061°47'0 0.0
2018-Feb-22 11:00N 17°01' W 061°47'0 0.0
2018-Feb-22 10:30N 17°01' W 061°47'0 0.0
2018-Feb-22 10:00N 17°01' W 061°47'0 0.0
2018-Feb-22 09:30N 17°01' W 061°47'0 0.0
2018-Feb-22 09:00N 17°01' W 061°47'0 0.0
2018-Feb-22 08:29N 17°01' W 061°47'1 1.1
2018-Feb-22 08:00N 17°00' W 061°47'3 6.2
2018-Feb-22 07:30N 16°59' W 061°50'3 6.5
2018-Feb-22 06:59N 16°56' W 061°50'3 5.9
2018-Feb-22 06:31N 16°53' W 061°50'3 6.2
2018-Feb-22 06:00N 16°50' W 061°50'3 6.3
2018-Feb-22 05:30N 16°47' W 061°50'3 6.0
2018-Feb-22 04:58N 16°43' W 061°49'4 6.5
2018-Feb-22 04:20N 16°39' W 061°49'2 6.7
2018-Feb-22 03:59N 16°37' W 061°49'3 5.7
2018-Feb-22 03:26N 16°34' W 061°48'  
Track history (hours):
 
Tides and Currents Weather Stations Pressure Air Temp Water Temp Dewpoint Dewpoint Depression Visibility Wind Speed Wind Dir Waves Ship Positions

Skip N Bou

Last reported at 2018-Feb-23 04:28 UTC. Time now 2018-Feb-23 04:34 UTC.
Position N 17°00' W 061°46'.

Length 24 m.

Type: Sailing vessel. MMSI: 235093585.

Date/timePositionNaut miles runAvg speedWind from/ knotsBaromVisibWave heightAir tempDewpointWater temp
2018-Feb-23 04:28N 17°00' W 061°46'0 0.0
2018-Feb-23 03:55N 17°00' W 061°46'0 0.0
2018-Feb-23 03:28N 17°00' W 061°46'0 0.0
2018-Feb-23 02:58N 17°00' W 061°46'0 0.0
2018-Feb-23 02:28N 17°00' W 061°46'0 0.0
2018-Feb-23 01:58N 17°00' W 061°46'0 0.0
2018-Feb-23 01:28N 17°00' W 061°46'0 0.0
2018-Feb-23 00:58N 17°00' W 061°46'0 0.0
2018-Feb-23 00:28N 17°00' W 061°46'0 0.0
2018-Feb-22 23:58N 17°00' W 061°46'0 0.0
2018-Feb-22 23:28N 17°00' W 061°46'0 0.0
2018-Feb-22 22:58N 17°00' W 061°46'0 0.0
2018-Feb-22 22:28N 17°00' W 061°46'0 0.0
2018-Feb-22 21:55N 17°00' W 061°46'0 0.0
2018-Feb-22 21:28N 17°00' W 061°46'0 0.0
2018-Feb-22 20:58N 17°00' W 061°46'0 0.0
2018-Feb-22 20:28N 17°00' W 061°46'0 0.0
2018-Feb-22 19:58N 17°00' W 061°46'0 0.0
2018-Feb-22 19:28N 17°00' W 061°46'0 0.0
2018-Feb-22 18:58N 17°00' W 061°46'0 0.0
2018-Feb-22 18:25N 17°00' W 061°46'0 0.2
2018-Feb-22 17:58N 17°01' W 061°46'0 1.1
2018-Feb-22 17:30N 17°00' W 061°46'1 2.7
2018-Feb-22 17:00N 17°01' W 061°47'0 0.1
2018-Feb-22 16:30N 17°01' W 061°47'0 0.0
2018-Feb-22 15:59N 17°01' W 061°47'0 0.0
2018-Feb-22 15:30N 17°01' W 061°47'0 0.0
2018-Feb-22 15:00N 17°01' W 061°47'0 0.0
2018-Feb-22 14:30N 17°01' W 061°47'0 0.0
2018-Feb-22 13:59N 17°01' W 061°47'0 0.0
2018-Feb-22 13:30N 17°01' W 061°47'0 0.0
2018-Feb-22 13:00N 17°01' W 061°47'0 0.0
2018-Feb-22 12:29N 17°01' W 061°47'0 0.0
2018-Feb-22 12:00N 17°01' W 061°47'0 0.0
2018-Feb-22 11:30N 17°01' W 061°47'0 0.0
2018-Feb-22 11:00N 17°01' W 061°47'0 0.0
2018-Feb-22 10:30N 17°01' W 061°47'0 0.0
2018-Feb-22 10:00N 17°01' W 061°47'0 0.0
2018-Feb-22 09:30N 17°01' W 061°47'0 0.0
2018-Feb-22 09:00N 17°01' W 061°47'0 0.0
2018-Feb-22 08:29N 17°01' W 061°47'1 1.1
2018-Feb-22 08:00N 17°00' W 061°47'3 6.2
2018-Feb-22 07:30N 16°59' W 061°50'3 6.5
2018-Feb-22 06:59N 16°56' W 061°50'3 5.9
2018-Feb-22 06:31N 16°53' W 061°50'3 6.2
2018-Feb-22 06:00N 16°50' W 061°50'3 6.3
2018-Feb-22 05:30N 16°47' W 061°50'3 6.0
2018-Feb-22 04:58N 16°43' W 061°49'4 6.5
2018-Feb-22 04:20N 16°39' W 061°49'2 6.7
2018-Feb-22 03:59N 16°37' W 061°49'3 5.7
2018-Feb-22 03:26N 16°34' W 061°48'  

Dump ship's entire track history